DW9435 Weather Reports


Display with metric or nautical units.
time (UTC)temp
F
wind
direction
speed
MPH
gust
MPH
rain 1hr
in
rain 24hr
in
rain mn
in
humidity
%
barometer
mb
20220818083151 79 143 1.0 3.0 0.00 0.00 0.00 28 1005.5
20220818081555 79 126 0.0 1.0 0.00 0.00 0.00 28 1005.5
20220818080055 81 124 0.0 1.0 0.00 0.00 0.00 27 1005.6
20220818074553 80 105 2.0 3.0 0.00 0.00 0.00 27 1005.6
20220818073057 80 208 0.0 2.0 0.00 0.00 0.00 29 1005.7
20220818071608 79 135 0.0 1.0 0.00 0.00 0.00 28 1005.7
20220818070157 80 135 0.0 1.0 0.00 0.00 0.00 28 1005.6
20220818064549 79 136 1.0 2.0 0.00 0.00 0.00 29 1005.6
20220818063048 80 149 1.0 3.0 0.00 0.00 0.00 29 1005.5
20220818061543 80 149 1.0 4.0 0.00 0.00 0.00 28 1005.5
20220818060106 80 152 1.0 2.0 0.00 0.00 0.00 30 1005.5
20220818054540 80 148 0.0 1.0 0.00 0.00 0.00 29 1005.4
20220818053039 81 148 0.0 2.0 0.00 0.00 0.00 28 1005.5
20220818051540 83 127 1.0 3.0 0.00 0.00 0.00 26 1005.5
20220818050050 83 74 2.0 3.0 0.00 0.00 0.00 26 1005.5
20220818044538 83 92 1.0 3.0 0.00 0.00 0.00 25 1005.6
20220818043116 83 93 2.0 3.0 0.00 0.00 0.00 25 1005.6
20220818041552 83 101 2.0 3.0 0.00 0.00 0.00 25 1005.6
20220818040040 84 80 1.0 2.0 0.00 0.00 0.00 24 1005.6
20220818034535 84 70 1.0 4.0 0.00 0.00 0.00 25 1005.6
20220818033037 84 80 1.0 4.0 0.00 0.00 0.00 25 1005.6
20220818031533 84 70 1.0 3.0 0.00 0.00 0.00 26 1005.4
20220818030032 84 72 2.0 4.0 0.00 0.00 0.00 25 1005.3
20220818024532 84 74 2.0 5.0 0.00 0.00 0.00 25 1005.2
20220818023031 85 73 2.0 5.0 0.00 0.00 0.00 26 1005.0
20220818021558 86 82 1.0 5.0 0.00 0.00 0.00 26 1004.9
20220818020029 88 49 2.0 6.0 0.00 0.00 0.00 24 1004.7
20220818014529 88 1 1.0 7.0 0.00 0.00 0.00 25 1004.6
20220818013027 88 30 1.0 5.0 0.00 0.00 0.00 26 1004.6
20220818011526 88 31 2.0 6.0 0.00 0.00 0.00 25 1004.5
20220818010029 87 8 2.0 5.0 0.00 0.00 0.00 26 1004.5
20220818004543 88 356 3.0 5.0 0.00 0.00 0.00 26 1004.5
20220818003023 88 113 0.0 2.0 0.00 0.00 0.00 26 1004.6
20220818001536 88 81 0.0 3.0 0.00 0.00 0.00 26 1004.7
20220818000021 89 337 5.0 12.0 0.00 0.00 0.00 24 1004.8
20220817234521 90 357 1.0 3.0 0.00 0.00 0.00 23 1004.9
20220817233021 90 334 2.0 11.0 0.00 0.00 0.00 23 1004.9
20220817231533 91 336 7.0 11.0 0.00 0.00 0.00 22 1004.9
20220817230018 93 357 3.0 8.0 0.00 0.00 0.00 23 1005.0
20220817224514 91 333 4.0 10.0 0.00 0.00 0.00 22 1005.2
20220817223016 91 321 4.0 13.0 0.00 0.00 0.00 22 1005.5
20220817221533 91 242 4.0 7.0 0.00 0.00 0.00 21 1005.6
20220817220020 91 259 1.0 5.0 0.00 0.00 0.00 24 1005.8
20220817214514 90 22 7.0 14.0 0.00 0.00 0.00 22 1005.8
20220817213021 90 328 5.0 10.0 0.00 0.00 0.00 22 1005.9
20220817211506 91 6 7.0 14.0 0.00 0.00 0.00 21 1006.2
20220817210004 90 216 4.0 10.0 0.00 0.00 0.00 21 1006.4
20220817204505 90 278 4.0 9.0 0.00 0.00 0.00 23 1006.4
20220817203103 89 38 5.0 10.0 0.00 0.00 0.00 24 1006.5
20220817201605 89 12 0.0 12.0 0.00 0.00 0.00 24 1006.7
20220817200057 89 360 1.0 6.0 0.00 0.00 0.00 25 1006.9
20220817194607 88 294 2.0 8.0 0.00 0.00 0.00 24 1007.0
20220817193058 88 98 0.0 3.0 0.00 0.00 0.00 27 1007.2
20220817191558 86 347 0.0 5.0 0.00 0.00 0.00 30 1007.4
20220817190056 86 347 3.0 5.0 0.00 0.00 0.00 30 1007.7
20220817184548 86 39 3.0 5.0 0.00 0.00 0.00 30 1007.8
20220817183047 85 16 1.0 6.0 0.00 0.00 0.00 32 1007.9
20220817181547 84 62 3.0 9.0 0.00 0.00 0.00 33 1007.9
20220817180050 85 34 2.0 4.0 0.00 0.00 0.00 33 1008.1
20220817174607 84 82 1.0 7.0 0.00 0.00 0.00 34 1008.2
20220817173039 82 338 1.0 4.0 0.00 0.00 0.00 36 1008.3
20220817171539 81 44 1.0 8.0 0.00 0.00 0.00 36 1008.3
20220817170041 81 347 0.0 5.0 0.00 0.00 0.00 36 1008.3
20220817164635 81 6 2.0 4.0 0.00 0.00 0.00 38 1008.2
20220817163035 80 335 1.0 5.0 0.00 0.00 0.00 37 1008.4
20220817161540 80 326 1.0 4.0 0.00 0.00 0.00 36 1008.4
20220817160029 78 331 0.0 4.0 0.00 0.00 0.00 38 1008.6
20220817154538 78 301 1.0 3.0 0.00 0.00 0.00 39 1008.4
20220817153027 79 328 1.0 3.0 0.00 0.00 0.00 40 1008.4
20220817151528 78 329 1.0 2.0 0.00 0.00 0.00 43 1008.4
20220817150027 78 327 0.0 1.0 0.00 0.00 0.00 41 1008.4
20220817144524 77 335 1.0 3.0 0.00 0.00 0.00 43 1008.2
20220817143019 77 335 0.0 3.0 0.00 0.00 0.00 42 1008.2
20220817141529 76 226 2.0 4.0 0.00 0.00 0.00 41 1008.2
20220817140017 76 142 2.0 8.0 0.00 0.00 0.00 42 1008.0
20220817134537 75 101 2.0 10.0 0.00 0.00 0.00 42 1007.9
20220817133011 0 0.0 0.0 0.00 0.00 0.00 1007.8
20220817131512 0 0.0 0.0 0.00 0.00 0.00 1007.8
20220817130006 0 0.0 0.0 0.00 0.00 0.00 1007.5
20220817124601 0 0.0 0.0 0.00 0.00 0.00 1007.3
20220817123057 0 0.0 0.0 0.00 0.00 0.00 1007.2
20220817121552 0 0.0 0.0 0.00 0.00 0.00 1007.1
20220817120100 74 207 14.0 21.0 0.00 0.00 0.00 44 1007.0
20220817114545 75 183 13.0 23.0 0.00 0.00 0.00 43 1007.1
20220817113042 75 193 17.0 28.0 0.00 0.00 0.00 43 1006.9
20220817111540 75 192 17.0 24.0 0.00 0.00 0.00 42 1006.9
20220817110043 75 203 15.0 21.0 0.00 0.00 0.00 41 1006.9
20220817104602 76 172 14.0 23.0 0.00 0.00 0.00 41 1006.8
20220817103045 75 155 15.0 23.0 0.00 0.00 0.00 42 1006.6
20220817101614 76 136 13.0 27.0 0.00 0.00 0.00 42 1006.6
20220817100030 76 166 15.0 29.0 0.00 0.00 0.00 41 1006.6
20220817094533 77 183 9.0 14.0 0.00 0.00 0.00 36 1006.6
20220817093027 77 181 10.0 18.0 0.00 0.00 0.00 36 1006.4
20220817091522 77 193 4.0 14.0 0.00 0.00 0.00 36 1006.6
20220817090020 78 224 6.0 20.0 0.00 0.00 0.00 34 1006.5
20220817084519 78 124 2.0 12.0 0.00 0.00 0.00 34 1006.5